• Join FlightAware (Why Join?)
  • Login
  • US Flag 
05:44PM EDT


 

Airport Tracker/Info


-or-


 

Live Flight TrackerFlight Track Log ✈ N741FX ✈ 23-Oct-2013 ✈ KABI - KLBB

Flight Track Log - Related Links

Times and Time Zones

All times are in EDT time to prevent confusion due to time zone crossing. See the N741FX flight status page for this flight to view local times or setup timezone preferences in your user account.

Time Position Orientation Groundspeed Altitude Reporting Facility
EDT Latitude Longitude Course Direction KTS MPH feet Rate Location/Type
09:49AM 32.5504 -99.9134 304° West  Level Estimated
09:50AM 32.5729 -99.9526 304° West  Level FlightAware Approximate
09:51AM 32.5954 -99.9918 304° West  Level FlightAware Approximate
09:52AM 32.6179 -100.0310 304° West  Level FlightAware Approximate
09:52AM 32.5708 -99.9969 306° West 170 196 8,000  Level Fort Worth Center
09:53AM 32.6404 -100.0702 304° West  Level FlightAware Approximate
09:53AM 32.5992 -100.0419 307° West 186 214 8,000  Level Fort Worth Center
09:54AM 32.6628 -100.1094 304° West  Level FlightAware Approximate
09:54AM 32.6275 -100.0847 308° West 186 214 8,000  Level Fort Worth Center
09:55AM 32.6860 -100.1481 306° West  Level Estimated
09:55AM 32.6556 -100.1325 305° West 180 207 8,000  Level Fort Worth Center
09:56AM 32.7092 -100.1867 306° West  Level FlightAware Approximate
09:56AM 32.6858 -100.1803 307° West 175 201 8,000  Level Fort Worth Center
09:57AM 32.7325 -100.2253 306° West  Level FlightAware Approximate
09:57AM 32.7119 -100.2256 304° West 175 201 8,000  Level Fort Worth Center
09:58AM 32.7381 -100.2708 304° West 175 201 8,000  Level Fort Worth Center
09:59AM 32.7664 -100.3161 307° West 175 201 8,000  Level Fort Worth Center
10:00AM 32.7944 -100.3592 308° West 175 201 8,000  Level Fort Worth Center
10:01AM 32.8206 -100.4044 304° West 175 201 8,000  Level Fort Worth Center
10:02AM 32.8486 -100.4500 306° West 175 201 8,000  Level Fort Worth Center
10:03AM 32.8767 -100.4981 305° West 175 201 8,000  Level Fort Worth Center
10:04AM 32.9028 -100.5408 306° West 175 201 8,000  Level Fort Worth Center
10:05AM 32.9308 -100.5864 306° West 175 201 8,000  Level Fort Worth Center
10:06AM 32.9589 -100.6319 306° West 175 201 8,000  Level Fort Worth Center
10:07AM 32.9869 -100.6800 305° West 175 201 8,000  Level Fort Worth Center
10:08AM 33.0128 -100.7256 304° West 175 201 8,000  Level Fort Worth Center
10:09AM 33.0408 -100.7711 306° West 175 201 8,000  Level Fort Worth Center
10:10AM 33.0711 -100.8169 308° West 175 201 8,000  Level Fort Worth Center
10:11AM 33.0969 -100.8650 303° West 175 201 8,000  Level Fort Worth Center
10:12AM 33.1247 -100.9108 306° West 175 201 8,000  Level Fort Worth Center
10:13AM 33.1528 -100.9542 308° West 175 201 8,000  Level Fort Worth Center
10:14AM 33.1828 -101.0000 308° West 175 201 8,000  Level Fort Worth Center
10:14AM 33.1825 -101.0125 268° West 170 196 8,000  Level Fort Worth Center
10:15AM 33.2106 -101.0483 313° West 173 199 8,000  Level Fort Worth Center
10:15AM 33.2064 -101.0531 223° Southwest 169 194 8,000  Level Fort Worth Center
10:16AM 33.2383 -101.0992 310° West 168 193 8,000 -60 Level Fort Worth Center
10:17AM 33.2619 -101.1472 300° West 168 193 7,900 -120 Descending Fort Worth Center
10:22AM 33.3970 -101.3640 300° West 169 194 -1,680 Descending FlightAware
10:23AM 33.4280 -101.4210 303° West 160 184  Level FlightAware
10:24AM 33.4480 -101.4550 305° West 159 183  Level FlightAware
10:25AM 33.4680 -101.4900 304° West 159 183  Level FlightAware
10:25AM 33.4880 -101.5230 306° West 162 186  Level FlightAware
10:26AM 33.5040 -101.5520 303° West 161 185  Level FlightAware
10:27AM 33.5250 -101.5870 306° West 160 184  Level FlightAware
10:27AM 33.5400 -101.6150 303° West 172 198  Level FlightAware
10:28AM 33.5600 -101.6540 302° West 172 198  Level FlightAware
10:29AM 33.5760 -101.6850 302° West 157 181  Level FlightAware
10:30AM 33.5940 -101.7190 302° West 153 176  Level FlightAware
10:30AM 33.6110 -101.7520 302° West 168 193  Level FlightAware
10:31AM 33.6200 -101.7820 290° West 147 169  Level FlightAware
10:32AM 33.6250 -101.8120 281° West 129 148  Level FlightAware
10:32AM 33.6460 -101.8290 326° Northwest 116 133  Level FlightAware
10:33AM 33.6630 -101.8290 360° North 74 85  Level FlightAware
10:34AM 33.6730 -101.8290 360° North 71 82  Level FlightAware
10:40AM 33.6637 -101.8206 301° West  Level Estimated
10:41AM 33.6637 -101.8206 301° West  Level Estimated